createdAt,value
2023-08-04T00:00:31.175Z,25
2023-08-04T00:01:33.000Z,25
2023-08-04T00:02:34.926Z,25
2023-08-04T00:03:39.212Z,25
2023-08-04T00:04:41.166Z,25
2023-08-04T00:05:42.876Z,24.9
2023-08-04T00:06:44.639Z,24.9
2023-08-04T00:07:46.381Z,25
2023-08-04T00:08:48.185Z,25
2023-08-04T00:09:49.919Z,25
2023-08-04T00:10:51.603Z,24.9
2023-08-04T00:11:53.352Z,25
2023-08-04T00:12:55.076Z,24.9
2023-08-04T00:13:56.833Z,25
2023-08-04T00:14:58.502Z,24.9
2023-08-04T00:16:00.284Z,24.9
2023-08-04T00:17:02.137Z,24.9
2023-08-04T00:18:03.920Z,24.9
2023-08-04T00:19:06.035Z,24.9
2023-08-04T00:20:07.862Z,24.9
2023-08-04T00:21:09.784Z,24.9
2023-08-04T00:22:11.454Z,24.9
2023-08-04T00:23:13.186Z,24.9
2023-08-04T00:24:15.021Z,24.9
2023-08-04T00:25:16.729Z,25
2023-08-04T00:26:18.441Z,25
2023-08-04T00:27:20.252Z,25
2023-08-04T00:28:22.042Z,24.9
2023-08-04T00:29:23.749Z,24.9
2023-08-04T00:30:25.534Z,24.9
2023-08-04T00:31:27.322Z,24.9
2023-08-04T00:32:29.183Z,24.9
2023-08-04T00:33:31.636Z,24.9
2023-08-04T00:34:33.451Z,24.9
2023-08-04T00:35:35.201Z,24.9
2023-08-04T00:36:37.006Z,24.9
2023-08-04T00:37:38.709Z,24.9
2023-08-04T00:38:40.522Z,24.9
2023-08-04T00:39:42.358Z,24.9
2023-08-04T00:40:44.052Z,24.9
2023-08-04T00:41:45.963Z,24.8
2023-08-04T00:42:48.904Z,24.8
2023-08-04T00:43:51.026Z,24.9
2023-08-04T00:44:52.745Z,24.9
2023-08-04T00:45:54.696Z,24.9
2023-08-04T00:46:56.709Z,24.9
2023-08-04T00:47:58.589Z,24.9
2023-08-04T00:49:03.579Z,24.8
2023-08-04T00:50:05.374Z,24.8
2023-08-04T00:51:07.173Z,24.9
2023-08-04T00:52:08.969Z,24.9
2023-08-04T00:53:10.658Z,24.9
2023-08-04T00:54:12.360Z,24.9
2023-08-04T00:55:14.066Z,24.8
2023-08-04T00:56:15.776Z,24.8
2023-08-04T00:57:17.676Z,24.8
2023-08-04T00:58:19.433Z,24.8
2023-08-04T00:59:21.218Z,24.8
2023-08-04T01:00:22.960Z,24.9
2023-08-04T01:01:24.784Z,24.8
2023-08-04T01:02:26.933Z,24.8
2023-08-04T01:03:29.179Z,24.8
2023-08-04T01:04:34.708Z,24.8
2023-08-04T01:05:36.424Z,24.8
2023-08-04T01:06:38.132Z,24.8
2023-08-04T01:07:39.915Z,24.8
2023-08-04T01:08:41.625Z,24.9
2023-08-04T01:09:43.329Z,24.9
2023-08-04T01:10:45.052Z,24.9
2023-08-04T01:11:46.841Z,24.8
2023-08-04T01:12:50.021Z,24.8
2023-08-04T01:13:51.687Z,24.8
2023-08-04T01:14:56.578Z,24.8
2023-08-04T01:15:58.314Z,24.8
2023-08-04T01:17:00.420Z,24.8
2023-08-04T01:18:02.274Z,24.8
2023-08-04T01:19:04.243Z,24.8
2023-08-04T01:20:06.096Z,24.8
2023-08-04T01:21:07.919Z,24.8
2023-08-04T01:22:09.687Z,24.8
2023-08-04T01:23:11.562Z,24.8
2023-08-04T01:24:13.269Z,24.8
2023-08-04T01:25:15.403Z,24.8
2023-08-04T01:26:17.131Z,24.8
2023-08-04T01:27:18.835Z,24.8
2023-08-04T01:28:20.729Z,24.7
2023-08-04T01:29:22.455Z,24.7
2023-08-04T01:30:24.215Z,24.7
2023-08-04T01:31:25.965Z,24.7
2023-08-04T01:32:27.668Z,24.7
2023-08-04T01:33:29.652Z,24.7
2023-08-04T01:34:31.347Z,24.8
2023-08-04T01:35:33.124Z,24.8
2023-08-04T01:36:34.885Z,24.8
2023-08-04T01:37:36.626Z,24.8
2023-08-04T01:38:39.175Z,24.7
2023-08-04T01:39:40.893Z,24.7
2023-08-04T01:40:42.609Z,24.7
2023-08-04T01:41:44.620Z,24.8
2023-08-04T01:42:48.191Z,24.8
2023-08-04T01:43:49.890Z,24.8
2023-08-04T01:44:51.599Z,24.8
2023-08-04T01:45:53.348Z,24.8
2023-08-04T01:46:58.127Z,24.7
2023-08-04T01:47:59.926Z,24.7
2023-08-04T01:49:01.953Z,24.7
2023-08-04T01:50:03.637Z,24.7
2023-08-04T01:51:05.637Z,24.7
2023-08-04T01:52:07.440Z,24.8
2023-08-04T01:53:09.252Z,24.7
2023-08-04T01:54:10.971Z,24.7
2023-08-04T01:55:12.700Z,24.7
2023-08-04T01:56:14.399Z,24.7
2023-08-04T01:57:16.225Z,24.7
2023-08-04T01:58:17.919Z,24.7
2023-08-04T01:59:19.647Z,24.7
2023-08-04T02:00:21.336Z,24.7
2023-08-04T02:01:23.172Z,24.7
2023-08-04T02:02:25.286Z,24.7
2023-08-04T02:03:27.342Z,24.7
2023-08-04T02:04:29.357Z,24.7
2023-08-04T02:05:31.084Z,24.6
2023-08-04T02:06:32.819Z,24.7
2023-08-04T02:07:34.497Z,24.7
2023-08-04T02:08:36.283Z,24.7
2023-08-04T02:09:38.005Z,24.7
2023-08-04T02:10:39.683Z,24.7
2023-08-04T02:11:41.420Z,24.6
2023-08-04T02:12:43.186Z,24.6
2023-08-04T02:13:45.089Z,24.6
2023-08-04T02:14:46.812Z,24.6
2023-08-04T02:15:48.534Z,24.7
2023-08-04T02:16:50.903Z,24.6
2023-08-04T02:17:52.648Z,24.6
2023-08-04T02:18:54.555Z,24.6
2023-08-04T02:19:56.307Z,24.6
2023-08-04T02:20:58.051Z,24.6
2023-08-04T02:21:59.760Z,24.6
2023-08-04T02:23:01.440Z,24.6
2023-08-04T02:24:03.164Z,24.7
2023-08-04T02:25:04.998Z,24.7
2023-08-04T02:26:06.696Z,24.6
2023-08-04T02:27:08.405Z,24.6
2023-08-04T02:28:10.145Z,24.6
2023-08-04T02:29:11.945Z,24.6
2023-08-04T02:30:13.652Z,24.6
2023-08-04T02:31:15.472Z,24.6
2023-08-04T02:32:17.598Z,24.6
2023-08-04T02:33:19.284Z,24.6
2023-08-04T02:34:21.035Z,24.6
2023-08-04T02:35:23.288Z,24.5
2023-08-04T02:36:25.070Z,24.5
2023-08-04T02:37:29.912Z,24.5
2023-08-04T02:38:31.613Z,24.5
2023-08-04T02:39:33.334Z,24.6
2023-08-04T02:40:37.879Z,24.6
2023-08-04T02:41:42.103Z,24.6
2023-08-04T02:42:43.866Z,24.6
2023-08-04T02:43:45.715Z,24.6
2023-08-04T02:44:47.442Z,24.5
2023-08-04T02:45:49.158Z,24.5
2023-08-04T02:46:50.869Z,24.5
2023-08-04T02:47:52.727Z,24.5
2023-08-04T02:48:54.694Z,24.5
2023-08-04T02:49:56.484Z,24.5
2023-08-04T02:50:58.198Z,24.5
2023-08-04T02:51:59.978Z,24.5
2023-08-04T02:53:01.774Z,24.5
2023-08-04T02:54:03.523Z,24.5
2023-08-04T02:55:05.392Z,24.5
2023-08-04T02:56:07.055Z,24.5
2023-08-04T02:57:08.813Z,24.5
2023-08-04T02:58:10.484Z,24.5
2023-08-04T02:59:12.186Z,24.5
2023-08-04T03:00:13.938Z,24.5
2023-08-04T03:01:15.822Z,24.5
2023-08-04T03:02:17.925Z,24.5
2023-08-04T03:03:20.104Z,24.5
2023-08-04T03:04:22.254Z,24.5
2023-08-04T03:05:23.978Z,24.5
2023-08-04T03:06:25.840Z,24.5
2023-08-04T03:07:30.670Z,24.5
2023-08-04T03:08:35.358Z,24.5
2023-08-04T03:09:37.150Z,24.5
2023-08-04T03:10:38.877Z,24.5
2023-08-04T03:11:40.594Z,24.5
2023-08-04T03:12:42.372Z,24.5
2023-08-04T03:13:44.064Z,24.5
2023-08-04T03:14:45.838Z,24.5
2023-08-04T03:15:47.557Z,24.5
2023-08-04T03:16:49.327Z,24.5
2023-08-04T03:17:51.311Z,24.4
2023-08-04T03:18:53.245Z,24.4
2023-08-04T03:19:54.953Z,24.4
2023-08-04T03:20:56.659Z,24.5
2023-08-04T03:21:58.426Z,24.4
2023-08-04T03:23:00.167Z,24.4
2023-08-04T03:24:01.893Z,24.4
2023-08-04T03:25:03.605Z,24.4
2023-08-04T03:26:05.406Z,24.4
2023-08-04T03:27:07.093Z,24.5
2023-08-04T03:28:08.871Z,24.5
2023-08-04T03:29:10.572Z,24.5
2023-08-04T03:30:12.409Z,24.5
2023-08-04T03:31:14.159Z,24.4
2023-08-04T03:32:15.954Z,24.4
2023-08-04T03:33:17.782Z,24.4
2023-08-04T03:34:19.516Z,24.4
2023-08-04T03:35:21.224Z,24.4
2023-08-04T03:36:23.019Z,24.4
2023-08-04T03:37:24.778Z,24.5
2023-08-04T03:38:26.551Z,24.4
2023-08-04T03:39:31.402Z,24.4
2023-08-04T03:40:33.097Z,24.4
2023-08-04T03:41:34.897Z,24.5
2023-08-04T03:42:36.595Z,24.4
2023-08-04T03:43:38.354Z,24.5
2023-08-04T03:44:40.048Z,24.5
2023-08-04T03:45:41.752Z,24.5
2023-08-04T03:46:43.498Z,24.5
2023-08-04T03:47:45.742Z,24.5
2023-08-04T03:48:47.835Z,24.5
2023-08-04T03:49:49.576Z,24.4
2023-08-04T03:50:51.278Z,24.5
2023-08-04T03:51:52.999Z,24.5
2023-08-04T03:52:57.528Z,24.5
2023-08-04T03:53:59.316Z,24.5
2023-08-04T03:55:01.102Z,24.6
2023-08-04T03:56:03.052Z,24.5
2023-08-04T03:57:05.026Z,24.5
2023-08-04T03:58:06.760Z,24.6
2023-08-04T03:59:08.454Z,24.6
2023-08-04T04:00:10.263Z,24.6
2023-08-04T04:01:12.030Z,24.7
2023-08-04T04:02:13.796Z,24.7
2023-08-04T04:03:16.125Z,24.8
2023-08-04T04:04:18.120Z,24.8
2023-08-04T04:05:20.051Z,24.8
2023-08-04T04:06:21.787Z,24.8
2023-08-04T04:07:23.492Z,24.8
2023-08-04T04:08:25.216Z,24.9
2023-08-04T04:09:26.963Z,24.9
2023-08-04T04:10:28.701Z,24.9
2023-08-04T04:11:30.429Z,25
2023-08-04T04:12:32.143Z,25
2023-08-04T04:13:33.839Z,25
2023-08-04T04:14:35.578Z,25
2023-08-04T04:15:37.273Z,25.1
2023-08-04T04:16:39.087Z,25.1
2023-08-04T04:17:41.284Z,25.1
2023-08-04T04:18:43.345Z,25.1
2023-08-04T04:19:45.068Z,25.1
2023-08-04T04:20:46.825Z,25.1
2023-08-04T04:21:48.844Z,25.1
2023-08-04T04:22:51.504Z,25.2
2023-08-04T04:23:53.254Z,25.2
2023-08-04T04:24:54.982Z,25.2
2023-08-04T04:25:56.891Z,25.2
2023-08-04T04:26:58.600Z,25.2
2023-08-04T04:28:00.421Z,25.2
2023-08-04T04:29:02.215Z,25.2
2023-08-04T04:30:04.029Z,25.1
2023-08-04T04:31:06.014Z,25.2
2023-08-04T04:32:08.078Z,25.1
2023-08-04T04:33:10.739Z,25.1
2023-08-04T04:34:12.539Z,25.1
2023-08-04T04:35:17.315Z,25.2
2023-08-04T04:36:19.179Z,25.2
2023-08-04T04:37:20.906Z,25.2
2023-08-04T04:38:22.624Z,25.2
2023-08-04T04:39:24.364Z,25.1
2023-08-04T04:40:28.629Z,25.1
2023-08-04T04:41:30.437Z,25
2023-08-04T04:42:32.160Z,24.9
2023-08-04T04:43:33.900Z,24.9
2023-08-04T04:44:35.620Z,24.8
2023-08-04T04:45:37.550Z,24.7
2023-08-04T04:46:39.330Z,24.6
2023-08-04T04:47:41.402Z,24.7
2023-08-04T04:48:43.289Z,24.7
2023-08-04T04:49:45.062Z,24.7
2023-08-04T04:50:46.813Z,24.7
2023-08-04T04:51:48.744Z,24.8
2023-08-04T04:52:52.340Z,24.9
2023-08-04T04:53:54.261Z,24.9
2023-08-04T04:54:55.991Z,25
2023-08-04T04:55:57.669Z,25
2023-08-04T04:56:59.359Z,25.1
2023-08-04T04:58:01.073Z,25.1
2023-08-04T04:59:02.798Z,25.2
2023-08-04T05:00:04.497Z,25.2
2023-08-04T05:01:06.385Z,25.3
2023-08-04T05:02:08.213Z,25.3
2023-08-04T05:03:10.181Z,25.4
2023-08-04T05:04:12.066Z,25.4
2023-08-04T05:05:14.026Z,25.4
2023-08-04T05:06:15.819Z,25.5
2023-08-04T05:07:17.554Z,25.5
2023-08-04T05:08:19.378Z,25.5
2023-08-04T05:09:21.056Z,25.6
2023-08-04T05:10:22.821Z,25.6
2023-08-04T05:11:24.612Z,25.6
2023-08-04T05:12:26.340Z,25.6
2023-08-04T05:13:28.043Z,25.6
2023-08-04T05:14:29.743Z,25.6
2023-08-04T05:15:31.440Z,25.6
2023-08-04T05:16:33.194Z,25.6
2023-08-04T05:17:35.239Z,25.6
2023-08-04T05:18:37.092Z,25.6
2023-08-04T05:19:38.947Z,25.7
2023-08-04T05:20:40.649Z,25.7
2023-08-04T05:21:42.380Z,25.7
2023-08-04T05:22:44.136Z,25.7
2023-08-04T05:23:45.863Z,25.8
2023-08-04T05:24:52.021Z,25.8
2023-08-04T05:26:13.427Z,25.8
2023-08-04T05:27:15.493Z,25.8
2023-08-04T05:28:17.305Z,25.9
2023-08-04T05:29:19.027Z,25.9
2023-08-04T05:30:20.733Z,25.9
2023-08-04T05:31:22.514Z,25.9
2023-08-04T05:32:24.484Z,25.9
2023-08-04T05:33:26.364Z,25.9
2023-08-04T05:34:28.462Z,26
2023-08-04T05:35:30.395Z,26
2023-08-04T05:36:32.135Z,26
2023-08-04T05:37:33.910Z,25.9
2023-08-04T05:38:35.714Z,25.9
2023-08-04T05:39:37.600Z,25.9
2023-08-04T05:40:40.030Z,25.9
2023-08-04T05:41:41.874Z,25.9
2023-08-04T05:42:43.689Z,25.9
2023-08-04T05:43:45.417Z,25.9
2023-08-04T05:44:47.080Z,26
2023-08-04T05:45:49.097Z,26
2023-08-04T05:46:51.874Z,26
2023-08-04T05:47:53.662Z,25.9
2023-08-04T05:48:55.535Z,25.9
2023-08-04T05:49:57.337Z,25.9
2023-08-04T05:50:59.114Z,25.9
2023-08-04T05:52:01.555Z,25.9
2023-08-04T05:53:03.299Z,26
2023-08-04T05:54:05.234Z,26
2023-08-04T05:55:06.938Z,26
2023-08-04T05:56:08.672Z,26
2023-08-04T05:57:10.432Z,26
2023-08-04T05:58:12.146Z,26
2023-08-04T05:59:13.893Z,26
2023-08-04T06:00:15.630Z,26
2023-08-04T06:01:17.389Z,26
2023-08-04T06:02:19.529Z,26.1
2023-08-04T06:03:21.274Z,26.1
2023-08-04T06:04:23.103Z,26.1
2023-08-04T06:05:24.844Z,26.1
2023-08-04T06:06:26.628Z,26.1
2023-08-04T06:07:28.594Z,26.1
2023-08-04T06:08:30.266Z,26.1
2023-08-04T06:09:31.989Z,26.2
2023-08-04T06:10:33.812Z,26.1
2023-08-04T06:11:35.541Z,26.1
2023-08-04T06:12:37.308Z,26.2
2023-08-04T06:13:39.004Z,26.2
2023-08-04T06:14:40.724Z,26.2
2023-08-04T06:15:42.494Z,26.2
2023-08-04T06:16:44.667Z,26.2
2023-08-04T06:17:46.403Z,26.2
2023-08-04T06:18:48.323Z,26.1
2023-08-04T06:19:50.012Z,26.1
2023-08-04T06:20:51.792Z,26.1
2023-08-04T06:21:56.378Z,26.1
2023-08-04T06:22:58.339Z,26.1
2023-08-04T06:24:00.087Z,26.1
2023-08-04T06:25:01.801Z,26
2023-08-04T06:26:03.655Z,26
2023-08-04T06:27:05.359Z,26
2023-08-04T06:28:07.328Z,26
2023-08-04T06:29:09.208Z,26.1
2023-08-04T06:30:10.935Z,26.1
2023-08-04T06:31:12.712Z,26.2
2023-08-04T06:32:14.600Z,26.2
2023-08-04T06:33:18.939Z,26.2
2023-08-04T06:34:21.139Z,26.2
2023-08-04T06:35:22.916Z,26.2
2023-08-04T06:36:24.643Z,26.2
2023-08-04T06:37:26.394Z,26.2
2023-08-04T06:38:28.117Z,26.2
2023-08-04T06:39:29.814Z,26.2
2023-08-04T06:40:31.580Z,26.2
2023-08-04T06:41:33.388Z,26.2
2023-08-04T06:42:35.060Z,26.1
2023-08-04T06:43:36.906Z,26.1
2023-08-04T06:44:38.771Z,26.1
2023-08-04T06:45:40.548Z,26.1
2023-08-04T06:46:42.505Z,26.1
2023-08-04T06:47:44.322Z,26.1
2023-08-04T06:48:46.621Z,26.1
2023-08-04T06:49:48.373Z,26.1
2023-08-04T06:50:50.081Z,26.1
2023-08-04T06:51:51.858Z,26.1
2023-08-04T06:52:53.616Z,26.1
2023-08-04T06:53:55.397Z,26.1
2023-08-04T06:54:57.256Z,26.1
2023-08-04T06:55:58.966Z,26.1
2023-08-04T06:57:00.739Z,26.1
2023-08-04T06:58:02.545Z,26.2
2023-08-04T06:59:07.295Z,26.2
2023-08-04T07:00:09.002Z,26.2
2023-08-04T07:01:10.997Z,26.2
2023-08-04T07:02:13.035Z,26.2
2023-08-04T07:03:15.267Z,26.2
2023-08-04T07:04:17.627Z,26.1
2023-08-04T07:05:19.463Z,26.1
2023-08-04T07:06:21.183Z,26.1
2023-08-04T07:07:23.005Z,26.2
2023-08-04T07:08:24.915Z,26.2
2023-08-04T07:09:26.675Z,26.2
2023-08-04T07:10:28.460Z,26.3
2023-08-04T07:11:30.266Z,26.3
2023-08-04T07:12:31.992Z,26.3
2023-08-04T07:13:33.786Z,26.3
2023-08-04T07:14:35.535Z,26.3
2023-08-04T07:15:37.357Z,26.3
2023-08-04T07:16:39.400Z,26.3
2023-08-04T07:17:41.218Z,26.3
2023-08-04T07:18:43.002Z,26.3
2023-08-04T07:19:44.731Z,26.3
2023-08-04T07:20:46.510Z,26.3
2023-08-04T07:21:48.373Z,26.3
2023-08-04T07:22:51.656Z,26.3
2023-08-04T07:23:53.365Z,26.3
2023-08-04T07:24:55.129Z,26.3
2023-08-04T07:25:56.915Z,26.3
2023-08-04T07:26:58.773Z,26.3
2023-08-04T07:28:00.553Z,26.3
2023-08-04T07:29:02.373Z,26.3
2023-08-04T07:30:04.256Z,26.3
2023-08-04T07:31:06.046Z,26.3
2023-08-04T07:32:08.200Z,26.3
2023-08-04T07:33:09.988Z,26.3
2023-08-04T07:34:12.212Z,26.3
2023-08-04T07:35:13.942Z,26.2
2023-08-04T07:36:15.675Z,26.3
2023-08-04T07:37:17.388Z,26.2
2023-08-04T07:38:19.209Z,26.2
2023-08-04T07:39:21.063Z,26.2
2023-08-04T07:40:22.764Z,26.2
2023-08-04T07:41:24.514Z,26.2
2023-08-04T07:42:26.229Z,26.2
2023-08-04T07:43:27.996Z,26.2
2023-08-04T07:44:29.712Z,26.2
2023-08-04T07:45:31.480Z,26.1
2023-08-04T07:46:33.179Z,26.1
2023-08-04T07:47:35.337Z,26.1
2023-08-04T07:48:37.401Z,26.1
2023-08-04T07:49:39.161Z,26.1
2023-08-04T07:50:40.896Z,26.1
2023-08-04T07:51:42.592Z,26.1
2023-08-04T07:52:44.339Z,26.1
2023-08-04T07:53:46.074Z,26.1
2023-08-04T07:54:47.935Z,26.1
2023-08-04T07:55:49.665Z,26.1
2023-08-04T07:56:51.396Z,26.1
2023-08-04T07:57:53.148Z,26.1
2023-08-04T07:58:54.933Z,26.1
2023-08-04T07:59:56.725Z,26.1
2023-08-04T08:00:58.614Z,26.1
2023-08-04T08:02:00.704Z,26.1
2023-08-04T08:03:02.590Z,26.1
2023-08-04T08:04:06.130Z,26.1
2023-08-04T08:05:08.307Z,26.1
2023-08-04T08:06:10.108Z,26.1
2023-08-04T08:07:12.441Z,26.1
2023-08-04T08:08:14.187Z,26.1
2023-08-04T08:09:16.041Z,26.1
2023-08-04T08:10:17.733Z,26.1
2023-08-04T08:11:19.562Z,26.1
2023-08-04T08:12:21.325Z,26.1
2023-08-04T08:13:23.097Z,26.1
2023-08-04T08:14:24.828Z,26.1
2023-08-04T08:15:26.643Z,26.1
2023-08-04T08:16:28.451Z,26.1
2023-08-04T08:17:30.505Z,26.1
2023-08-04T08:18:35.807Z,26.1
2023-08-04T08:19:37.465Z,26
2023-08-04T08:20:39.185Z,26
2023-08-04T08:21:40.965Z,26
2023-08-04T08:22:42.688Z,26
2023-08-04T08:23:44.460Z,26.1
2023-08-04T08:24:46.267Z,26.1
2023-08-04T08:25:48.214Z,26.1
2023-08-04T08:26:50.130Z,26.1
2023-08-04T08:27:51.858Z,26.1
2023-08-04T08:28:53.702Z,26.1
2023-08-04T08:29:55.414Z,26.1
2023-08-04T08:30:57.257Z,26.1
2023-08-04T08:31:59.290Z,26.1
2023-08-04T08:33:00.985Z,26.1
2023-08-04T08:34:03.270Z,26.1
2023-08-04T08:35:04.973Z,26.1
2023-08-04T08:36:06.805Z,26.1
2023-08-04T08:37:08.577Z,26.1
2023-08-04T08:38:10.246Z,26.1
2023-08-04T08:39:11.970Z,26.1
2023-08-04T08:40:13.708Z,26.1
2023-08-04T08:41:15.416Z,26
2023-08-04T08:42:17.188Z,26
2023-08-04T08:43:18.946Z,26
2023-08-04T08:44:20.708Z,26
2023-08-04T08:45:23.206Z,26
2023-08-04T08:46:25.142Z,26
2023-08-04T08:47:27.057Z,26
2023-08-04T08:48:29.133Z,26
2023-08-04T08:49:30.883Z,26
2023-08-04T08:50:32.623Z,26
2023-08-04T08:51:34.324Z,26
2023-08-04T08:52:36.122Z,26
2023-08-04T08:53:40.769Z,25.9
2023-08-04T08:54:42.454Z,25.9
2023-08-04T08:55:44.310Z,26
2023-08-04T08:56:46.064Z,26
2023-08-04T08:57:47.760Z,26
2023-08-04T08:58:49.448Z,25.9
2023-08-04T08:59:51.273Z,25.9
2023-08-04T09:00:53.055Z,25.9
2023-08-04T09:01:54.961Z,25.9
2023-08-04T09:02:56.831Z,25.9
2023-08-04T09:03:58.734Z,26
2023-08-04T09:05:00.679Z,26
2023-08-04T09:06:02.700Z,26
2023-08-04T09:07:04.517Z,26
2023-08-04T09:08:06.237Z,26
2023-08-04T09:09:07.997Z,26
2023-08-04T09:10:09.688Z,26
2023-08-04T09:11:11.503Z,26
2023-08-04T09:12:13.270Z,26
2023-08-04T09:13:15.096Z,26
2023-08-04T09:14:16.857Z,26
2023-08-04T09:15:19.204Z,25.9
2023-08-04T09:16:21.034Z,26
2023-08-04T09:17:23.369Z,25.9
2023-08-04T09:18:25.386Z,25.9
2023-08-04T09:19:27.137Z,25.9
2023-08-04T09:20:28.877Z,25.8
2023-08-04T09:21:30.702Z,25.9
2023-08-04T09:22:32.376Z,25.9
2023-08-04T09:23:36.521Z,25.9
2023-08-04T09:24:38.200Z,25.9
2023-08-04T09:25:39.903Z,25.9
2023-08-04T09:26:41.627Z,25.9
2023-08-04T09:27:43.416Z,25.8
2023-08-04T09:28:45.093Z,25.8
2023-08-04T09:29:46.809Z,25.9
2023-08-04T09:30:48.536Z,25.9
2023-08-04T09:31:50.618Z,25.9
2023-08-04T09:32:53.940Z,25.9
2023-08-04T09:33:55.995Z,25.9
2023-08-04T09:34:57.753Z,25.9
2023-08-04T09:35:59.605Z,25.9
2023-08-04T09:37:01.348Z,25.8
2023-08-04T09:38:03.137Z,25.8
2023-08-04T09:39:04.887Z,25.8
2023-08-04T09:40:06.803Z,25.8
2023-08-04T09:41:08.600Z,25.8
2023-08-04T09:42:10.592Z,25.8
2023-08-04T09:43:12.334Z,25.8
2023-08-04T09:44:14.159Z,25.8
2023-08-04T09:45:15.991Z,25.8
2023-08-04T09:46:19.085Z,25.7
2023-08-04T09:47:21.696Z,25.7
2023-08-04T09:48:23.442Z,25.6
2023-08-04T09:49:25.156Z,25.6
2023-08-04T09:50:26.997Z,25.6
2023-08-04T09:51:28.798Z,25.5
2023-08-04T09:52:30.628Z,25.4
2023-08-04T09:53:32.506Z,25.4
2023-08-04T09:54:34.288Z,25.5
2023-08-04T09:55:36.026Z,25.5
2023-08-04T09:56:38.287Z,25.5
2023-08-04T09:57:42.420Z,25.5
2023-08-04T09:58:44.146Z,25.5
2023-08-04T09:59:46.178Z,25.5
2023-08-04T10:00:47.886Z,25.5
2023-08-04T10:01:50.123Z,25.6
2023-08-04T10:02:56.473Z,25.6
2023-08-04T10:03:59.239Z,25.7
2023-08-04T10:05:01.513Z,25.7
2023-08-04T10:06:03.600Z,25.7
2023-08-04T10:07:07.971Z,25.6
2023-08-04T10:08:09.776Z,25.6
2023-08-04T10:09:11.733Z,25.7
2023-08-04T10:10:13.463Z,25.7
2023-08-04T10:11:15.300Z,25.7
2023-08-04T10:12:16.996Z,25.8
2023-08-04T10:13:18.808Z,25.8
2023-08-04T10:14:20.518Z,25.7
2023-08-04T10:15:23.336Z,25.7
2023-08-04T10:16:25.375Z,25.7
2023-08-04T10:17:28.065Z,25.8
2023-08-04T10:18:30.635Z,25.8
2023-08-04T10:19:32.510Z,25.8
2023-08-04T10:20:34.472Z,25.8
2023-08-04T10:21:38.239Z,25.9
2023-08-04T10:22:45.206Z,25.9
2023-08-04T10:23:47.206Z,25.9
2023-08-04T10:24:48.920Z,25.9
2023-08-04T10:25:51.393Z,25.8
2023-08-04T10:26:53.228Z,25.8
2023-08-04T10:27:54.966Z,25.8
2023-08-04T10:28:59.820Z,25.8
2023-08-04T10:30:01.828Z,25.9
2023-08-04T10:31:03.718Z,26
2023-08-04T10:32:05.646Z,26
2023-08-04T10:33:08.090Z,26
2023-08-04T10:34:10.024Z,25.9
2023-08-04T10:35:11.757Z,25.8
2023-08-04T10:36:13.895Z,25.8
2023-08-04T10:37:15.660Z,25.8
2023-08-04T10:38:17.570Z,25.8
2023-08-04T10:39:19.810Z,25.8
2023-08-04T10:40:21.590Z,25.8
2023-08-04T10:41:23.378Z,25.8
2023-08-04T10:42:25.138Z,25.8
2023-08-04T10:43:26.916Z,25.8
2023-08-04T10:44:28.801Z,25.8
2023-08-04T10:45:30.654Z,25.9
2023-08-04T10:46:34.582Z,25.8
2023-08-04T10:47:37.646Z,25.8
2023-08-04T10:49:13.058Z,25.9
2023-08-04T10:50:15.148Z,25.9
2023-08-04T10:51:17.720Z,25.9
2023-08-04T10:52:22.381Z,25.8
2023-08-04T10:53:26.894Z,25.8
2023-08-04T10:54:28.666Z,25.8
2023-08-04T10:55:30.494Z,25.7
2023-08-04T10:56:32.404Z,25.6
2023-08-04T10:57:34.181Z,25.6
2023-08-04T10:58:36.114Z,25.6
2023-08-04T10:59:38.122Z,25.7
2023-08-04T11:00:39.889Z,25.8
2023-08-04T11:01:41.877Z,25.8
2023-08-04T11:02:43.958Z,25.8
2023-08-04T11:03:46.202Z,26
2023-08-04T11:04:48.101Z,25.9
2023-08-04T11:05:50.618Z,25.8
2023-08-04T11:06:52.812Z,25.9
2023-08-04T11:07:54.837Z,25.9
2023-08-04T11:08:57.072Z,25.9
2023-08-04T11:09:58.894Z,25.9
2023-08-04T11:11:00.735Z,26
2023-08-04T11:12:02.727Z,26
2023-08-04T11:13:04.492Z,25.9
2023-08-04T11:14:06.231Z,25.9
2023-08-04T11:15:08.225Z,26
2023-08-04T11:16:10.023Z,26
2023-08-04T11:17:11.874Z,26
2023-08-04T11:18:14.338Z,25.9
2023-08-04T11:19:16.461Z,25.9
2023-08-04T11:20:31.107Z,26
2023-08-04T11:21:35.971Z,26.1
2023-08-04T11:22:37.826Z,26.1
2023-08-04T11:23:39.796Z,26.1
2023-08-04T11:24:41.675Z,26.1
2023-08-04T11:25:43.412Z,26.1
2023-08-04T11:26:45.257Z,26.1
2023-08-04T11:27:47.015Z,26
2023-08-04T11:28:48.908Z,26.1
2023-08-04T11:29:51.076Z,26.1
2023-08-04T11:30:52.837Z,26.1
2023-08-04T11:31:54.892Z,26.1
2023-08-04T11:32:59.576Z,26.1
2023-08-04T11:34:01.752Z,26.1
2023-08-04T11:35:03.526Z,26.1
2023-08-04T11:36:05.830Z,26.1
2023-08-04T11:37:07.756Z,26
2023-08-04T11:38:09.610Z,26
2023-08-04T11:39:11.977Z,26.1
2023-08-04T11:40:13.784Z,26.1
2023-08-04T11:41:15.670Z,26.1
2023-08-04T11:42:18.134Z,26.1
2023-08-04T11:43:19.924Z,26.1
2023-08-04T11:44:21.753Z,26.1
2023-08-04T11:45:23.711Z,26.1
2023-08-04T11:46:25.497Z,26.1
2023-08-04T11:47:27.578Z,26.1
2023-08-04T11:48:30.101Z,26.1
2023-08-04T11:49:32.257Z,26.1
2023-08-04T11:50:34.306Z,26.1
2023-08-04T11:51:36.099Z,26.1
2023-08-04T11:52:37.961Z,26.1
2023-08-04T11:53:39.956Z,26.1
2023-08-04T11:54:41.723Z,26.1
2023-08-04T11:55:43.482Z,26
2023-08-04T11:56:45.567Z,26
2023-08-04T11:57:47.768Z,26
2023-08-04T11:58:49.544Z,26
2023-08-04T11:59:51.490Z,26
2023-08-04T12:00:53.226Z,26
2023-08-04T12:02:06.555Z,26
2023-08-04T12:03:13.976Z,26
2023-08-04T12:04:16.981Z,26
2023-08-04T12:05:20.223Z,26
2023-08-04T12:06:22.883Z,26.1
2023-08-04T12:07:25.057Z,26.1
2023-08-04T12:08:26.920Z,26.1
2023-08-04T12:09:28.739Z,26.1
2023-08-04T12:10:33.402Z,26.1
2023-08-04T12:11:35.483Z,26.1
2023-08-04T12:12:37.218Z,26.2
2023-08-04T12:13:38.994Z,26.2
2023-08-04T12:14:51.494Z,26.1
2023-08-04T12:16:04.035Z,26.2
2023-08-04T12:17:06.456Z,26.2
2023-08-04T12:18:08.925Z,26.3
2023-08-04T12:19:11.062Z,26.3
2023-08-04T12:20:12.958Z,26.3
2023-08-04T12:21:17.850Z,26.3
2023-08-04T12:22:21.739Z,26.3
2023-08-04T12:23:23.950Z,26.2
2023-08-04T12:24:26.266Z,26.1
2023-08-04T12:25:28.245Z,26.2
2023-08-04T12:26:29.995Z,26.2
2023-08-04T12:27:31.733Z,26.2
2023-08-04T12:28:33.517Z,26.2
2023-08-04T12:29:35.410Z,26.2
2023-08-04T12:30:37.162Z,26.2
2023-08-04T12:31:39.354Z,26.2
2023-08-04T12:32:41.777Z,26.2
2023-08-04T12:33:44.262Z,26.2
2023-08-04T12:34:46.211Z,26.2
2023-08-04T12:35:48.107Z,26.2
2023-08-04T12:36:49.819Z,26.2
2023-08-04T12:37:51.598Z,26.3
2023-08-04T12:38:53.406Z,26.2
2023-08-04T12:39:57.098Z,26.2
2023-08-04T12:40:59.621Z,26.2
2023-08-04T12:42:01.820Z,26.2
2023-08-04T12:43:03.614Z,26.1
2023-08-04T12:44:05.496Z,26
2023-08-04T12:45:07.524Z,25.9
2023-08-04T12:46:09.362Z,25.9
2023-08-04T12:47:11.444Z,25.9
2023-08-04T12:48:13.792Z,25.9
2023-08-04T12:49:15.901Z,25.8
2023-08-04T12:50:18.018Z,25.8
2023-08-04T12:51:22.969Z,25.9
2023-08-04T12:52:24.669Z,26
2023-08-04T12:53:26.417Z,26
2023-08-04T12:54:28.122Z,26.1
2023-08-04T12:55:29.867Z,26.1
2023-08-04T12:56:31.721Z,26.2
2023-08-04T12:57:33.397Z,26.2
2023-08-04T12:58:35.145Z,26.2
2023-08-04T12:59:37.129Z,26.2
2023-08-04T13:00:38.918Z,26.3
2023-08-04T13:01:40.717Z,26.3
2023-08-04T13:02:43.389Z,26.3
2023-08-04T13:03:45.917Z,26.3
2023-08-04T13:04:48.216Z,26.3
2023-08-04T13:05:50.822Z,26.3
2023-08-04T13:06:52.527Z,26.3
2023-08-04T13:07:54.275Z,26.3
2023-08-04T13:08:56.237Z,26.3
2023-08-04T13:09:58.037Z,26.3
2023-08-04T13:10:59.898Z,26.3
2023-08-04T13:12:05.170Z,26.3
2023-08-04T13:13:06.905Z,26.3
2023-08-04T13:14:08.754Z,26.3
2023-08-04T13:15:11.186Z,26.3
2023-08-04T13:16:12.952Z,26.3
2023-08-04T13:17:18.332Z,26.3
2023-08-04T13:18:20.349Z,26.3
2023-08-04T13:19:22.076Z,26.3
2023-08-04T13:20:23.857Z,26.3
2023-08-04T13:21:25.758Z,26.3
2023-08-04T13:22:27.898Z,26.3
2023-08-04T13:23:29.630Z,26.3
2023-08-04T13:24:31.382Z,26.3
2023-08-04T13:25:33.189Z,26.3
2023-08-04T13:26:34.927Z,26.3
2023-08-04T13:27:39.706Z,26.3
2023-08-04T13:28:43.399Z,26.3
2023-08-04T13:29:45.554Z,26.3
2023-08-04T13:30:47.315Z,26.3
2023-08-04T13:31:49.326Z,26.3
2023-08-04T13:32:53.015Z,26.3
2023-08-04T13:33:55.548Z,26.3
2023-08-04T13:34:57.410Z,26.3
2023-08-04T13:35:59.562Z,26.3
2023-08-04T13:37:01.252Z,26.3
2023-08-04T13:38:02.977Z,26.3
2023-08-04T13:39:05.041Z,26.3
2023-08-04T13:40:06.916Z,26.3
2023-08-04T13:41:08.825Z,26.3
2023-08-04T13:42:10.906Z,26.3
2023-08-04T13:43:12.648Z,26.3
2023-08-04T13:44:14.443Z,26.3
2023-08-04T13:45:16.460Z,26.3
2023-08-04T13:46:18.208Z,26.3
2023-08-04T13:47:20.291Z,26.3
2023-08-04T13:48:22.285Z,26.3
2023-08-04T13:49:24.039Z,26.3
2023-08-04T13:50:26.073Z,26.3
2023-08-04T13:51:28.191Z,26.3
2023-08-04T13:52:32.882Z,26.3
2023-08-04T13:53:34.612Z,26.3